sensor_id;sensor_type;location;lat;lon;timestamp;P1;durP1;ratioP1;P2;durP2;ratioP2
53056;SDS011;38940;50.096;4.012;2022-12-20T00:00:58;117.93;;;110.15;;
53056;SDS011;38940;50.096;4.012;2022-12-20T00:03:25;121.15;;;113.18;;
53056;SDS011;38940;50.096;4.012;2022-12-20T00:05:51;126.25;;;117.95;;
53056;SDS011;38940;50.096;4.012;2022-12-20T00:08:17;121.97;;;112.65;;
53056;SDS011;38940;50.096;4.012;2022-12-20T00:10:44;87.53;;;81.88;;
53056;SDS011;38940;50.096;4.012;2022-12-20T00:13:10;138.30;;;129.30;;
53056;SDS011;38940;50.096;4.012;2022-12-20T00:15:36;133.77;;;124.82;;
53056;SDS011;38940;50.096;4.012;2022-12-20T00:18:02;129.35;;;120.47;;
53056;SDS011;38940;50.096;4.012;2022-12-20T00:20:29;139.85;;;130.63;;
53056;SDS011;38940;50.096;4.012;2022-12-20T00:22:55;115.15;;;107.72;;
53056;SDS011;38940;50.096;4.012;2022-12-20T00:25:21;107.53;;;100.57;;
53056;SDS011;38940;50.096;4.012;2022-12-20T00:27:47;112.95;;;105.40;;
53056;SDS011;38940;50.096;4.012;2022-12-20T00:30:14;98.80;;;92.35;;
53056;SDS011;38940;50.096;4.012;2022-12-20T00:32:40;134.30;;;125.45;;
53056;SDS011;38940;50.096;4.012;2022-12-20T00:35:06;109.03;;;101.85;;
53056;SDS011;38940;50.096;4.012;2022-12-20T00:37:33;108.85;;;101.82;;
53056;SDS011;38940;50.096;4.012;2022-12-20T00:39:59;98.68;;;92.30;;
53056;SDS011;38940;50.096;4.012;2022-12-20T00:42:25;121.72;;;113.28;;
53056;SDS011;38940;50.096;4.012;2022-12-20T00:44:51;144.75;;;135.15;;
53056;SDS011;38940;50.096;4.012;2022-12-20T00:47:17;130.57;;;122.05;;
53056;SDS011;38940;50.096;4.012;2022-12-20T00:49:43;114.28;;;106.78;;
53056;SDS011;38940;50.096;4.012;2022-12-20T00:52:09;138.52;;;129.27;;
53056;SDS011;38940;50.096;4.012;2022-12-20T00:54:35;140.20;;;131.07;;
53056;SDS011;38940;50.096;4.012;2022-12-20T00:57:01;120.35;;;112.55;;
53056;SDS011;38940;50.096;4.012;2022-12-20T00:59:27;127.13;;;118.70;;
53056;SDS011;38940;50.096;4.012;2022-12-20T01:01:53;128.02;;;119.55;;
53056;SDS011;38940;50.096;4.012;2022-12-20T01:04:19;124.75;;;116.70;;
53056;SDS011;38940;50.096;4.012;2022-12-20T01:06:45;123.82;;;115.03;;
53056;SDS011;38940;50.096;4.012;2022-12-20T01:09:11;102.40;;;95.78;;
53056;SDS011;38940;50.096;4.012;2022-12-20T01:11:38;124.50;;;115.90;;
53056;SDS011;38940;50.096;4.012;2022-12-20T01:14:06;141.85;;;132.18;;
53056;SDS011;38940;50.096;4.012;2022-12-20T01:16:37;118.03;;;110.25;;
53056;SDS011;38940;50.096;4.012;2022-12-20T01:19:04;147.23;;;137.52;;
53056;SDS011;38940;50.096;4.012;2022-12-20T01:21:30;115.90;;;108.20;;
53056;SDS011;38940;50.096;4.012;2022-12-20T01:23:56;123.43;;;115.30;;
53056;SDS011;38940;50.096;4.012;2022-12-20T01:26:23;124.20;;;116.05;;
53056;SDS011;38940;50.096;4.012;2022-12-20T01:28:54;124.28;;;115.97;;
53056;SDS011;38940;50.096;4.012;2022-12-20T01:31:20;112.43;;;105.13;;
53056;SDS011;38940;50.096;4.012;2022-12-20T01:33:47;136.00;;;126.70;;
53056;SDS011;38940;50.096;4.012;2022-12-20T01:36:14;120.50;;;112.45;;
53056;SDS011;38940;50.096;4.012;2022-12-20T01:38:41;124.40;;;116.28;;
53056;SDS011;38940;50.096;4.012;2022-12-20T01:41:07;112.43;;;105.22;;
53056;SDS011;38940;50.096;4.012;2022-12-20T01:43:45;110.50;;;103.28;;
53056;SDS011;38940;50.096;4.012;2022-12-20T01:46:12;110.20;;;102.70;;
53056;SDS011;38940;50.096;4.012;2022-12-20T01:48:38;116.10;;;108.57;;
53056;SDS011;38940;50.096;4.012;2022-12-20T01:51:05;126.78;;;117.40;;
53056;SDS011;38940;50.096;4.012;2022-12-20T01:53:31;120.00;;;112.22;;
53056;SDS011;38940;50.096;4.012;2022-12-20T01:56:01;140.80;;;131.55;;
53056;SDS011;38940;50.096;4.012;2022-12-20T01:58:28;142.88;;;133.50;;
53056;SDS011;38940;50.096;4.012;2022-12-20T02:00:55;145.35;;;135.80;;
53056;SDS011;38940;50.096;4.012;2022-12-20T02:03:21;137.55;;;128.50;;
53056;SDS011;38940;50.096;4.012;2022-12-20T02:05:47;131.25;;;122.68;;
53056;SDS011;38940;50.096;4.012;2022-12-20T02:08:15;151.43;;;141.48;;
53056;SDS011;38940;50.096;4.012;2022-12-20T02:11:01;123.53;;;115.53;;
53056;SDS011;38940;50.096;4.012;2022-12-20T02:16:01;146.90;;;137.23;;
53056;SDS011;38940;50.096;4.012;2022-12-20T02:18:28;143.00;;;133.32;;
53056;SDS011;38940;50.096;4.012;2022-12-20T02:31:14;155.70;;;145.48;;
53056;SDS011;38940;50.096;4.012;2022-12-20T02:33:43;168.25;;;156.98;;
53056;SDS011;38940;50.096;4.012;2022-12-20T02:36:13;172.45;;;161.07;;
53056;SDS011;38940;50.096;4.012;2022-12-20T02:38:39;149.93;;;140.02;;
53056;SDS011;38940;50.096;4.012;2022-12-20T02:41:16;149.93;;;140.02;;
53056;SDS011;38940;50.096;4.012;2022-12-20T02:43:45;178.05;;;166.27;;
53056;SDS011;38940;50.096;4.012;2022-12-20T02:46:31;141.45;;;132.20;;
53056;SDS011;38940;50.096;4.012;2022-12-20T02:48:59;157.25;;;146.85;;
53056;SDS011;38940;50.096;4.012;2022-12-20T02:51:26;168.35;;;157.25;;
53056;SDS011;38940;50.096;4.012;2022-12-20T02:53:52;145.30;;;135.45;;
53056;SDS011;38940;50.096;4.012;2022-12-20T02:56:21;146.38;;;136.73;;
53056;SDS011;38940;50.096;4.012;2022-12-20T02:58:50;170.32;;;159.02;;
53056;SDS011;38940;50.096;4.012;2022-12-20T03:02:00;148.57;;;138.55;;
53056;SDS011;38940;50.096;4.012;2022-12-20T03:04:07;133.48;;;124.50;;
53056;SDS011;38940;50.096;4.012;2022-12-20T03:06:33;142.70;;;133.38;;
53056;SDS011;38940;50.096;4.012;2022-12-20T03:08:59;104.32;;;97.53;;
53056;SDS011;38940;50.096;4.012;2022-12-20T03:11:25;125.80;;;117.45;;
53056;SDS011;38940;50.096;4.012;2022-12-20T03:13:51;120.93;;;113.05;;
53056;SDS011;38940;50.096;4.012;2022-12-20T03:16:17;142.55;;;133.02;;
53056;SDS011;38940;50.096;4.012;2022-12-20T03:18:43;124.63;;;116.55;;
53056;SDS011;38940;50.096;4.012;2022-12-20T03:21:10;139.45;;;130.38;;
53056;SDS011;38940;50.096;4.012;2022-12-20T03:23:36;140.20;;;130.95;;
53056;SDS011;38940;50.096;4.012;2022-12-20T03:26:02;120.80;;;112.93;;
53056;SDS011;38940;50.096;4.012;2022-12-20T03:28:28;143.27;;;133.95;;
53056;SDS011;38940;50.096;4.012;2022-12-20T03:30:54;90.55;;;84.45;;
53056;SDS011;38940;50.096;4.012;2022-12-20T03:33:20;93.00;;;87.00;;
53056;SDS011;38940;50.096;4.012;2022-12-20T03:35:46;140.77;;;131.45;;
53056;SDS011;38940;50.096;4.012;2022-12-20T03:38:13;132.50;;;123.72;;
53056;SDS011;38940;50.096;4.012;2022-12-20T03:40:39;124.72;;;116.47;;
53056;SDS011;38940;50.096;4.012;2022-12-20T03:43:05;121.22;;;113.30;;
53056;SDS011;38940;50.096;4.012;2022-12-20T03:45:31;92.78;;;86.72;;
53056;SDS011;38940;50.096;4.012;2022-12-20T03:47:57;117.05;;;109.47;;
53056;SDS011;38940;50.096;4.012;2022-12-20T03:50:23;106.30;;;99.32;;
53056;SDS011;38940;50.096;4.012;2022-12-20T03:52:49;100.18;;;93.72;;
53056;SDS011;38940;50.096;4.012;2022-12-20T03:55:15;84.65;;;79.13;;
53056;SDS011;38940;50.096;4.012;2022-12-20T03:57:41;96.95;;;89.88;;
53056;SDS011;38940;50.096;4.012;2022-12-20T04:00:07;95.95;;;89.75;;
53056;SDS011;38940;50.096;4.012;2022-12-20T04:02:33;117.70;;;110.07;;
53056;SDS011;38940;50.096;4.012;2022-12-20T04:04:59;90.60;;;84.45;;
53056;SDS011;38940;50.096;4.012;2022-12-20T04:07:25;111.10;;;104.00;;
53056;SDS011;38940;50.096;4.012;2022-12-20T04:09:51;87.38;;;81.75;;
53056;SDS011;38940;50.096;4.012;2022-12-20T04:12:17;119.25;;;111.55;;
53056;SDS011;38940;50.096;4.012;2022-12-20T04:14:43;89.10;;;83.38;;
53056;SDS011;38940;50.096;4.012;2022-12-20T04:17:09;106.85;;;100.03;;
53056;SDS011;38940;50.096;4.012;2022-12-20T04:19:35;106.95;;;100.03;;
53056;SDS011;38940;50.096;4.012;2022-12-20T04:22:01;98.07;;;91.78;;
53056;SDS011;38940;50.096;4.012;2022-12-20T04:24:27;99.97;;;93.53;;
53056;SDS011;38940;50.096;4.012;2022-12-20T04:26:53;102.63;;;95.97;;
53056;SDS011;38940;50.096;4.012;2022-12-20T04:29:19;117.78;;;109.68;;
53056;SDS011;38940;50.096;4.012;2022-12-20T04:31:45;124.25;;;115.75;;
53056;SDS011;38940;50.096;4.012;2022-12-20T04:34:11;105.20;;;98.43;;
53056;SDS011;38940;50.096;4.012;2022-12-20T04:36:37;106.68;;;99.47;;
53056;SDS011;38940;50.096;4.012;2022-12-20T04:39:03;92.68;;;86.75;;
53056;SDS011;38940;50.096;4.012;2022-12-20T04:41:29;82.50;;;77.15;;
53056;SDS011;38940;50.096;4.012;2022-12-20T04:43:56;109.75;;;102.38;;
53056;SDS011;38940;50.096;4.012;2022-12-20T04:46:23;90.88;;;84.75;;
53056;SDS011;38940;50.096;4.012;2022-12-20T04:48:50;91.25;;;85.38;;
53056;SDS011;38940;50.096;4.012;2022-12-20T04:51:16;104.75;;;97.80;;
53056;SDS011;38940;50.096;4.012;2022-12-20T04:53:42;109.38;;;102.25;;
53056;SDS011;38940;50.096;4.012;2022-12-20T04:56:12;83.57;;;78.18;;
53056;SDS011;38940;50.096;4.012;2022-12-20T04:58:38;94.93;;;88.82;;
53056;SDS011;38940;50.096;4.012;2022-12-20T05:01:04;105.35;;;98.60;;
53056;SDS011;38940;50.096;4.012;2022-12-20T05:03:30;98.75;;;92.38;;
53056;SDS011;38940;50.096;4.012;2022-12-20T05:05:56;99.85;;;93.45;;
53056;SDS011;38940;50.096;4.012;2022-12-20T05:08:22;95.53;;;89.38;;
53056;SDS011;38940;50.096;4.012;2022-12-20T05:10:48;80.88;;;75.45;;
53056;SDS011;38940;50.096;4.012;2022-12-20T05:13:15;89.10;;;83.30;;
53056;SDS011;38940;50.096;4.012;2022-12-20T05:15:41;96.90;;;90.70;;
53056;SDS011;38940;50.096;4.012;2022-12-20T05:18:07;71.68;;;66.90;;
53056;SDS011;38940;50.096;4.012;2022-12-20T05:20:33;76.68;;;71.53;;
53056;SDS011;38940;50.096;4.012;2022-12-20T05:22:59;103.90;;;97.25;;
53056;SDS011;38940;50.096;4.012;2022-12-20T05:25:48;80.82;;;75.63;;
53056;SDS011;38940;50.096;4.012;2022-12-20T05:28:14;105.20;;;98.47;;
53056;SDS011;38940;50.096;4.012;2022-12-20T05:30:40;111.20;;;103.75;;
53056;SDS011;38940;50.096;4.012;2022-12-20T05:33:06;70.70;;;66.13;;
53056;SDS011;38940;50.096;4.012;2022-12-20T05:35:32;90.82;;;85.03;;
53056;SDS011;38940;50.096;4.012;2022-12-20T05:37:58;84.45;;;78.90;;
53056;SDS011;38940;50.096;4.012;2022-12-20T05:40:25;75.85;;;71.03;;
53056;SDS011;38940;50.096;4.012;2022-12-20T05:42:51;85.57;;;79.97;;
53056;SDS011;38940;50.096;4.012;2022-12-20T05:45:17;72.55;;;67.85;;
53056;SDS011;38940;50.096;4.012;2022-12-20T05:47:43;80.18;;;75.03;;
53056;SDS011;38940;50.096;4.012;2022-12-20T05:50:09;74.45;;;69.65;;
53056;SDS011;38940;50.096;4.012;2022-12-20T05:52:35;88.53;;;82.13;;
53056;SDS011;38940;50.096;4.012;2022-12-20T05:55:02;82.82;;;77.07;;
53056;SDS011;38940;50.096;4.012;2022-12-20T05:57:28;83.13;;;77.75;;
53056;SDS011;38940;50.096;4.012;2022-12-20T05:59:54;78.43;;;73.38;;
53056;SDS011;38940;50.096;4.012;2022-12-20T06:02:20;67.13;;;62.72;;
53056;SDS011;38940;50.096;4.012;2022-12-20T06:04:46;86.57;;;80.90;;
53056;SDS011;38940;50.096;4.012;2022-12-20T06:07:12;97.75;;;91.47;;
53056;SDS011;38940;50.096;4.012;2022-12-20T06:09:38;99.18;;;92.75;;
53056;SDS011;38940;50.096;4.012;2022-12-20T06:12:04;105.53;;;98.80;;
53056;SDS011;38940;50.096;4.012;2022-12-20T06:14:30;111.22;;;103.95;;
53056;SDS011;38940;50.096;4.012;2022-12-20T06:16:56;86.32;;;80.75;;
53056;SDS011;38940;50.096;4.012;2022-12-20T06:19:22;82.75;;;77.20;;
53056;SDS011;38940;50.096;4.012;2022-12-20T06:21:48;111.40;;;103.75;;
53056;SDS011;38940;50.096;4.012;2022-12-20T06:24:14;94.18;;;87.78;;
53056;SDS011;38940;50.096;4.012;2022-12-20T06:26:40;98.95;;;92.50;;
53056;SDS011;38940;50.096;4.012;2022-12-20T06:29:08;77.20;;;71.95;;
53056;SDS011;38940;50.096;4.012;2022-12-20T06:31:38;99.70;;;93.10;;
53056;SDS011;38940;50.096;4.012;2022-12-20T06:34:04;89.18;;;82.78;;
53056;SDS011;38940;50.096;4.012;2022-12-20T06:36:30;92.38;;;86.50;;
53056;SDS011;38940;50.096;4.012;2022-12-20T06:38:56;91.55;;;85.72;;
53056;SDS011;38940;50.096;4.012;2022-12-20T06:41:22;101.55;;;95.00;;
53056;SDS011;38940;50.096;4.012;2022-12-20T06:43:48;83.28;;;77.68;;
53056;SDS011;38940;50.096;4.012;2022-12-20T06:46:14;76.22;;;71.35;;
53056;SDS011;38940;50.096;4.012;2022-12-20T06:48:40;92.57;;;86.45;;
53056;SDS011;38940;50.096;4.012;2022-12-20T06:51:06;95.53;;;89.35;;
53056;SDS011;38940;50.096;4.012;2022-12-20T06:53:32;110.90;;;103.55;;
53056;SDS011;38940;50.096;4.012;2022-12-20T06:55:58;108.18;;;100.82;;
53056;SDS011;38940;50.096;4.012;2022-12-20T06:58:24;95.78;;;89.65;;
53056;SDS011;38940;50.096;4.012;2022-12-20T07:00:50;94.25;;;88.07;;
53056;SDS011;38940;50.096;4.012;2022-12-20T07:03:16;77.88;;;72.82;;
53056;SDS011;38940;50.096;4.012;2022-12-20T07:05:42;75.72;;;70.82;;
53056;SDS011;38940;50.096;4.012;2022-12-20T07:08:08;84.95;;;79.15;;
53056;SDS011;38940;50.096;4.012;2022-12-20T07:10:34;66.47;;;62.17;;
53056;SDS011;38940;50.096;4.012;2022-12-20T07:13:01;77.65;;;72.57;;
53056;SDS011;38940;50.096;4.012;2022-12-20T07:15:27;100.05;;;93.60;;
53056;SDS011;38940;50.096;4.012;2022-12-20T07:17:53;107.95;;;100.95;;
53056;SDS011;38940;50.096;4.012;2022-12-20T07:20:19;117.65;;;109.97;;
53056;SDS011;38940;50.096;4.012;2022-12-20T07:22:48;77.10;;;72.07;;
53056;SDS011;38940;50.096;4.012;2022-12-20T07:25:14;64.07;;;59.97;;
53056;SDS011;38940;50.096;4.012;2022-12-20T07:27:40;102.47;;;95.82;;
53056;SDS011;38940;50.096;4.012;2022-12-20T07:30:06;92.85;;;86.75;;
53056;SDS011;38940;50.096;4.012;2022-12-20T07:32:32;92.53;;;86.57;;
53056;SDS011;38940;50.096;4.012;2022-12-20T07:34:58;78.72;;;73.63;;
53056;SDS011;38940;50.096;4.012;2022-12-20T07:37:27;86.80;;;80.78;;
53056;SDS011;38940;50.096;4.012;2022-12-20T07:39:53;81.35;;;76.15;;
53056;SDS011;38940;50.096;4.012;2022-12-20T07:42:19;100.65;;;94.18;;
53056;SDS011;38940;50.096;4.012;2022-12-20T07:44:45;101.38;;;94.75;;
53056;SDS011;38940;50.096;4.012;2022-12-20T07:47:12;113.75;;;106.32;;
53056;SDS011;38940;50.096;4.012;2022-12-20T07:49:38;107.95;;;99.95;;
53056;SDS011;38940;50.096;4.012;2022-12-20T07:52:04;115.78;;;108.30;;
53056;SDS011;38940;50.096;4.012;2022-12-20T07:54:32;91.25;;;85.28;;
53056;SDS011;38940;50.096;4.012;2022-12-20T07:57:00;88.97;;;83.28;;
53056;SDS011;38940;50.096;4.012;2022-12-20T07:59:34;120.00;;;112.00;;
53056;SDS011;38940;50.096;4.012;2022-12-20T08:02:01;93.90;;;87.57;;
53056;SDS011;38940;50.096;4.012;2022-12-20T08:04:27;94.25;;;87.72;;
53056;SDS011;38940;50.096;4.012;2022-12-20T08:06:55;95.88;;;89.35;;
53056;SDS011;38940;50.096;4.012;2022-12-20T08:09:22;101.95;;;95.30;;
53056;SDS011;38940;50.096;4.012;2022-12-20T08:11:50;134.85;;;126.07;;
53056;SDS011;38940;50.096;4.012;2022-12-20T08:14:16;147.73;;;137.93;;
53056;SDS011;38940;50.096;4.012;2022-12-20T08:16:43;130.00;;;121.28;;
53056;SDS011;38940;50.096;4.012;2022-12-20T08:19:09;107.90;;;100.95;;
53056;SDS011;38940;50.096;4.012;2022-12-20T08:21:35;129.20;;;120.80;;
53056;SDS011;38940;50.096;4.012;2022-12-20T08:24:01;111.30;;;103.97;;
53056;SDS011;38940;50.096;4.012;2022-12-20T08:26:27;114.25;;;106.85;;
53056;SDS011;38940;50.096;4.012;2022-12-20T08:28:54;158.85;;;148.30;;
53056;SDS011;38940;50.096;4.012;2022-12-20T08:31:20;132.90;;;124.22;;
53056;SDS011;38940;50.096;4.012;2022-12-20T08:33:46;134.82;;;125.85;;
53056;SDS011;38940;50.096;4.012;2022-12-20T08:36:12;150.43;;;140.57;;
53056;SDS011;38940;50.096;4.012;2022-12-20T08:38:39;161.27;;;150.55;;
53056;SDS011;38940;50.096;4.012;2022-12-20T08:41:06;121.47;;;113.45;;
53056;SDS011;38940;50.096;4.012;2022-12-20T08:43:33;143.20;;;133.52;;
53056;SDS011;38940;50.096;4.012;2022-12-20T08:46:00;130.45;;;121.18;;
53056;SDS011;38940;50.096;4.012;2022-12-20T08:48:26;131.32;;;122.57;;
53056;SDS011;38940;50.096;4.012;2022-12-20T08:51:02;136.13;;;127.13;;
53056;SDS011;38940;50.096;4.012;2022-12-20T08:53:29;158.98;;;148.48;;
53056;SDS011;38940;50.096;4.012;2022-12-20T08:56:04;153.90;;;143.80;;
53056;SDS011;38940;50.096;4.012;2022-12-20T08:58:30;138.68;;;129.63;;
53056;SDS011;38940;50.096;4.012;2022-12-20T09:01:00;132.05;;;123.40;;
53056;SDS011;38940;50.096;4.012;2022-12-20T09:03:28;122.18;;;114.00;;
53056;SDS011;38940;50.096;4.012;2022-12-20T09:05:55;103.45;;;96.80;;
53056;SDS011;38940;50.096;4.012;2022-12-20T09:08:22;156.10;;;145.68;;
53056;SDS011;38940;50.096;4.012;2022-12-20T09:10:48;130.45;;;121.97;;
53056;SDS011;38940;50.096;4.012;2022-12-20T09:13:14;143.15;;;133.68;;
53056;SDS011;38940;50.096;4.012;2022-12-20T09:15:40;122.63;;;114.45;;
53056;SDS011;38940;50.096;4.012;2022-12-20T09:18:07;112.13;;;104.85;;
53056;SDS011;38940;50.096;4.012;2022-12-20T09:20:33;120.40;;;112.15;;
53056;SDS011;38940;50.096;4.012;2022-12-20T09:22:59;136.13;;;127.22;;
53056;SDS011;38940;50.096;4.012;2022-12-20T09:25:25;129.60;;;121.07;;
53056;SDS011;38940;50.096;4.012;2022-12-20T09:27:52;137.70;;;128.60;;
53056;SDS011;38940;50.096;4.012;2022-12-20T09:30:20;120.85;;;112.85;;
53056;SDS011;38940;50.096;4.012;2022-12-20T09:32:46;113.28;;;105.43;;
53056;SDS011;38940;50.096;4.012;2022-12-20T09:35:12;120.32;;;112.35;;
53056;SDS011;38940;50.096;4.012;2022-12-20T09:37:38;113.28;;;105.93;;
53056;SDS011;38940;50.096;4.012;2022-12-20T09:40:05;111.53;;;104.28;;
53056;SDS011;38940;50.096;4.012;2022-12-20T09:42:31;114.10;;;106.68;;
53056;SDS011;38940;50.096;4.012;2022-12-20T09:45:02;110.45;;;103.25;;
53056;SDS011;38940;50.096;4.012;2022-12-20T09:47:31;145.10;;;135.50;;
53056;SDS011;38940;50.096;4.012;2022-12-20T09:49:59;123.68;;;115.25;;
53056;SDS011;38940;50.096;4.012;2022-12-20T09:52:30;157.35;;;146.82;;
53056;SDS011;38940;50.096;4.012;2022-12-20T09:55:26;129.50;;;121.10;;
53056;SDS011;38940;50.096;4.012;2022-12-20T09:58:50;137.80;;;128.80;;
53056;SDS011;38940;50.096;4.012;2022-12-20T10:00:47;172.55;;;161.00;;
53056;SDS011;38940;50.096;4.012;2022-12-20T10:03:47;141.43;;;131.45;;
53056;SDS011;38940;50.096;4.012;2022-12-20T10:08:46;143.30;;;133.90;;
53056;SDS011;38940;50.096;4.012;2022-12-20T10:13:59;149.95;;;140.00;;
53056;SDS011;38940;50.096;4.012;2022-12-20T10:16:35;148.70;;;138.68;;
53056;SDS011;38940;50.096;4.012;2022-12-20T10:22:31;179.88;;;167.63;;
53056;SDS011;38940;50.096;4.012;2022-12-20T10:24:36;135.02;;;125.90;;
53056;SDS011;38940;50.096;4.012;2022-12-20T10:27:11;124.85;;;116.70;;
53056;SDS011;38940;50.096;4.012;2022-12-20T10:29:38;136.65;;;127.72;;
53056;SDS011;38940;50.096;4.012;2022-12-20T10:32:09;147.98;;;138.30;;
53056;SDS011;38940;50.096;4.012;2022-12-20T10:34:37;203.27;;;189.75;;
53056;SDS011;38940;50.096;4.012;2022-12-20T10:37:10;151.02;;;140.98;;
53056;SDS011;38940;50.096;4.012;2022-12-20T10:39:41;178.57;;;165.40;;
53056;SDS011;38940;50.096;4.012;2022-12-20T10:42:21;136.38;;;127.38;;
53056;SDS011;38940;50.096;4.012;2022-12-20T10:44:48;137.73;;;128.65;;
53056;SDS011;38940;50.096;4.012;2022-12-20T10:47:27;141.77;;;132.40;;
53056;SDS011;38940;50.096;4.012;2022-12-20T10:50:18;118.32;;;110.47;;
53056;SDS011;38940;50.096;4.012;2022-12-20T10:52:43;137.93;;;128.45;;
53056;SDS011;38940;50.096;4.012;2022-12-20T10:57:54;177.13;;;165.15;;
53056;SDS011;38940;50.096;4.012;2022-12-20T11:00:27;189.13;;;176.63;;
53056;SDS011;38940;50.096;4.012;2022-12-20T11:05:39;257.27;;;237.43;;
53056;SDS011;38940;50.096;4.012;2022-12-20T11:08:13;205.25;;;191.40;;
53056;SDS011;38940;50.096;4.012;2022-12-20T11:10:40;195.68;;;182.50;;
53056;SDS011;38940;50.096;4.012;2022-12-20T11:13:17;227.20;;;212.00;;
53056;SDS011;38940;50.096;4.012;2022-12-20T11:15:47;198.15;;;184.90;;
53056;SDS011;38940;50.096;4.012;2022-12-20T11:18:22;232.00;;;216.57;;
53056;SDS011;38940;50.096;4.012;2022-12-20T11:41:41;187.57;;;175.27;;
53056;SDS011;38940;50.096;4.012;2022-12-20T11:47:02;150.05;;;140.18;;
53056;SDS011;38940;50.096;4.012;2022-12-20T11:52:13;149.15;;;139.18;;
53056;SDS011;38940;50.096;4.012;2022-12-20T11:54:48;149.23;;;139.27;;
53056;SDS011;38940;50.096;4.012;2022-12-20T11:57:37;134.70;;;125.75;;
53056;SDS011;38940;50.096;4.012;2022-12-20T12:00:04;156.23;;;145.93;;
53056;SDS011;38940;50.096;4.012;2022-12-20T12:04:58;137.23;;;128.32;;
53056;SDS011;38940;50.096;4.012;2022-12-20T12:07:28;144.18;;;134.52;;
53056;SDS011;38940;50.096;4.012;2022-12-20T12:09:56;164.30;;;153.32;;
53056;SDS011;38940;50.096;4.012;2022-12-20T12:12:26;137.63;;;128.57;;
53056;SDS011;38940;50.096;4.012;2022-12-20T12:14:57;133.65;;;124.82;;
53056;SDS011;38940;50.096;4.012;2022-12-20T12:17:28;132.63;;;122.20;;
53056;SDS011;38940;50.096;4.012;2022-12-20T12:20:00;164.48;;;153.10;;
53056;SDS011;38940;50.096;4.012;2022-12-20T12:22:30;130.40;;;121.38;;
53056;SDS011;38940;50.096;4.012;2022-12-20T12:25:00;152.50;;;142.35;;
53056;SDS011;38940;50.096;4.012;2022-12-20T12:27:27;154.90;;;144.23;;
53056;SDS011;38940;50.096;4.012;2022-12-20T12:29:53;143.85;;;134.25;;
53056;SDS011;38940;50.096;4.012;2022-12-20T12:45:30;172.50;;;161.02;;
53056;SDS011;38940;50.096;4.012;2022-12-20T12:48:00;159.93;;;149.25;;
53056;SDS011;38940;50.096;4.012;2022-12-20T12:50:31;160.48;;;149.82;;
53056;SDS011;38940;50.096;4.012;2022-12-20T12:53:11;148.57;;;138.57;;
53056;SDS011;38940;50.096;4.012;2022-12-20T13:01:03;164.60;;;153.25;;
53056;SDS011;38940;50.096;4.012;2022-12-20T13:03:40;144.50;;;134.82;;
53056;SDS011;38940;50.096;4.012;2022-12-20T13:11:28;149.40;;;139.45;;
53056;SDS011;38940;50.096;4.012;2022-12-20T13:14:55;163.07;;;150.93;;
53056;SDS011;38940;50.096;4.012;2022-12-20T13:19:38;138.55;;;129.55;;
53056;SDS011;38940;50.096;4.012;2022-12-20T13:27:01;144.48;;;134.48;;
53056;SDS011;38940;50.096;4.012;2022-12-20T13:29:41;133.50;;;124.60;;
53056;SDS011;38940;50.096;4.012;2022-12-20T13:34:58;137.73;;;128.00;;
53056;SDS011;38940;50.096;4.012;2022-12-20T13:37:26;133.70;;;124.05;;
53056;SDS011;38940;50.096;4.012;2022-12-20T13:39:52;152.48;;;142.52;;
53056;SDS011;38940;50.096;4.012;2022-12-20T13:42:31;145.93;;;136.30;;
53056;SDS011;38940;50.096;4.012;2022-12-20T13:45:00;151.02;;;140.68;;
53056;SDS011;38940;50.096;4.012;2022-12-20T13:47:36;152.18;;;141.93;;
53056;SDS011;38940;50.096;4.012;2022-12-20T13:50:17;160.52;;;149.75;;
53056;SDS011;38940;50.096;4.012;2022-12-20T13:52:46;167.15;;;156.10;;
53056;SDS011;38940;50.096;4.012;2022-12-20T13:55:22;159.82;;;149.25;;
53056;SDS011;38940;50.096;4.012;2022-12-20T13:57:49;165.65;;;154.65;;
53056;SDS011;38940;50.096;4.012;2022-12-20T14:00:25;141.68;;;132.45;;
53056;SDS011;38940;50.096;4.012;2022-12-20T14:02:51;143.80;;;134.40;;
53056;SDS011;38940;50.096;4.012;2022-12-20T14:05:20;152.10;;;142.15;;
53056;SDS011;38940;50.096;4.012;2022-12-20T14:07:57;171.95;;;160.18;;
53056;SDS011;38940;50.096;4.012;2022-12-20T14:10:25;158.02;;;147.52;;
53056;SDS011;38940;50.096;4.012;2022-12-20T14:12:53;154.65;;;144.40;;
53056;SDS011;38940;50.096;4.012;2022-12-20T14:15:20;154.70;;;143.80;;
53056;SDS011;38940;50.096;4.012;2022-12-20T14:17:46;158.32;;;147.95;;
53056;SDS011;38940;50.096;4.012;2022-12-20T14:22:40;147.48;;;137.23;;
53056;SDS011;38940;50.096;4.012;2022-12-20T14:25:07;125.50;;;117.00;;
53056;SDS011;38940;50.096;4.012;2022-12-20T14:27:37;149.40;;;139.57;;
53056;SDS011;38940;50.096;4.012;2022-12-20T14:30:03;133.32;;;124.15;;
53056;SDS011;38940;50.096;4.012;2022-12-20T14:32:30;138.68;;;129.57;;
53056;SDS011;38940;50.096;4.012;2022-12-20T14:34:56;138.73;;;129.15;;
53056;SDS011;38940;50.096;4.012;2022-12-20T14:40:22;135.68;;;126.60;;
53056;SDS011;38940;50.096;4.012;2022-12-20T14:42:41;127.15;;;118.80;;
53056;SDS011;38940;50.096;4.012;2022-12-20T14:47:47;132.95;;;124.15;;
53056;SDS011;38940;50.096;4.012;2022-12-20T14:50:18;140.02;;;130.40;;
53056;SDS011;38940;50.096;4.012;2022-12-20T14:52:44;133.13;;;124.43;;
53056;SDS011;38940;50.096;4.012;2022-12-20T14:55:15;145.52;;;135.85;;
53056;SDS011;38940;50.096;4.012;2022-12-20T14:57:44;147.00;;;137.30;;
53056;SDS011;38940;50.096;4.012;2022-12-20T15:13:45;167.13;;;155.93;;
53056;SDS011;38940;50.096;4.012;2022-12-20T15:16:17;157.07;;;146.35;;
53056;SDS011;38940;50.096;4.012;2022-12-20T15:18:47;170.63;;;158.30;;
53056;SDS011;38940;50.096;4.012;2022-12-20T15:21:14;152.75;;;142.45;;
53056;SDS011;38940;50.096;4.012;2022-12-20T15:23:47;147.60;;;137.35;;
53056;SDS011;38940;50.096;4.012;2022-12-20T15:26:14;145.80;;;135.90;;
53056;SDS011;38940;50.096;4.012;2022-12-20T15:28:40;148.10;;;138.30;;
53056;SDS011;38940;50.096;4.012;2022-12-20T15:31:10;134.02;;;125.13;;
53056;SDS011;38940;50.096;4.012;2022-12-20T15:33:37;149.43;;;139.65;;
53056;SDS011;38940;50.096;4.012;2022-12-20T15:36:03;187.45;;;175.15;;
53056;SDS011;38940;50.096;4.012;2022-12-20T15:38:30;145.52;;;135.85;;
53056;SDS011;38940;50.096;4.012;2022-12-20T15:40:59;168.02;;;156.88;;
53056;SDS011;38940;50.096;4.012;2022-12-20T15:43:26;160.30;;;149.52;;
53056;SDS011;38940;50.096;4.012;2022-12-20T15:45:52;167.63;;;156.23;;
53056;SDS011;38940;50.096;4.012;2022-12-20T15:48:22;177.70;;;165.27;;
53056;SDS011;38940;50.096;4.012;2022-12-20T15:50:49;161.75;;;150.98;;
53056;SDS011;38940;50.096;4.012;2022-12-20T15:53:17;177.00;;;165.18;;
53056;SDS011;38940;50.096;4.012;2022-12-20T15:55:46;164.68;;;153.70;;
53056;SDS011;38940;50.096;4.012;2022-12-20T15:58:12;175.75;;;163.60;;
53056;SDS011;38940;50.096;4.012;2022-12-20T16:00:39;193.88;;;181.15;;